LiveATC.Net - Listen to live air traffic control over the Internet!

Find LiveATC Audio Streams


Airport/ARTCC Code

Frequency Search
(e.g., 124.400, 128.75)
Site-wide search
 


Browse LiveATC Feeds
LiveATC Coverage Map
Top 50 LiveATC Feeds
Bad Weather Areas

LiveATC FAQ
Offer a LiveATC Feed
Contact LiveATC.net
Press Inquiries

LiveATC on iPhone
LiveATC on Android

Windows Phone
Windows 8/10

LiveATC Mobile
(Mobile browser)

ATC Audio Archives
Interesting Recordings

LiveATC Forums

Home Page
About LiveATC.net
Make a Donation
Terms of Use
Privacy Policy

Canadian Air Freqs

AIRMETs/SIGMETs

FAA Airport Status
Nat'l Airspace Status
Arrival Demand Charts


Server Software By:
Icecast.org
Liquidsoap


Current Potentially Bad Weather Airports
(updated every 30 minutes - sorted alphabetically by ICAO code)



This page lists LiveATC.net airport areas that may be interesting to listen to because of challenging flying (weather) conditions. Challenging weather conditions include low ceilings, limited visibility, high or gusty winds, or thunderstorms.

Updated: Sun Jun 24 14:40:01 UTC 2018
Click on airport name to go to that airport area's feeds.

KAVK CTAF (Air Race Classic) Alva Regional Airport (Alva, US-OK)
kavkNearest METAR:
KAVK 241415Z AUTO VRB05G11KT 4SM -TSRA SCT033 BKN043 OVC110 19/19 A2989 RMK AO2 LTG DSNT ALQDS
CYQI/CZQM CTAF/FIC/Center Yarmouth Airport (Yarmouth, CA-NS)
WX MAP UNAVAILABLENearest METAR:
CYQI 241400Z 33011KT 10SM OVC006 14/12 A2978 RMK SF8 SLP086 DENSITY ALT 300FT
CYXU App/Dep (London Sector) London International Airport (London, CA-ON)
cyxuNearest METAR:
CYXU 241429Z 34005KT 15SM OVC008 20/18 A2982 RMK SF8 SLP097 DENSITY ALT 1800FT
KACK Tower Nantucket Memorial Airport (Nantucket, US-MA)
kackNearest METAR:
KACK 241353Z 24009KT 10SM OVC007 18/17 A2985 RMK AO2 SLP109 T01830167
KASG Gnd/Twr/App Springdale Municipal Airport (Springdale, US-AR)
kasgNearest METAR:
KASG 241348Z 13012KT 8SM -RA FEW033 SCT048 BKN060 21/21 A2983 RMK LTG DSNT ALQDS
KBAF Ground/Tower Barnes Municipal Airport (Westfield/Springfield, US-MA)
kbafNearest METAR:
KBAF 241354Z 19004KT 3SM BR OVC007 18/17 A2983 RMK AO2 T01830172
KBDL Approach/ANG Bradley International Airport (Windsor Locks, US-CT)
kbdlNearest METAR:
KBDL 241351Z 20004KT 9SM OVC007 19/17 A2984 RMK AO2 SLP103 T01890167
KBDR Del/Gnd/Twr/App Igor I Sikorsky Memorial Airport (Bridgeport, US-CT)
kbdrNearest METAR:
KBDR 241352Z 25005KT 9SM OVC006 20/17 A2984 RMK AO2 SLP104 T02000172
KBFI Ground/Tower Boeing Field/King County International Airport (Seattle, US-WA)
kbfiNearest METAR:
KBFI 241353Z 31005KT 10SM OVC008 13/11 A3007 RMK AO2 SLP182 T01330111 $
MA/NH/RI/CT Area CTAF Hopedale Industrial Park Airport (Hopedale, US-MA)
kpymNearest METAR:
KPYM 241352Z AUTO 23008KT 10SM OVC006 18/17 A2984 RMK AO2 SLP104 T01830167
MA/NH/RI/CT Area CTAF Hopedale Industrial Park Airport (Hopedale, US-MA)
keenNearest METAR:
KEEN 241356Z AUTO 00000KT 10SM OVC006 18/16 A2983 RMK AO2 SLP119 T01780156
KBPK CTAF Baxter County Airport (Mountain Home, US-AR)
kbpkNearest METAR:
KBPK 241424Z AUTO 00000KT 10SM -RA BKN014 BKN023 BKN027 22/21 A2995 RMK AO2 LTG DSNT ALQDS TSE06 P0000 T02170211
KBTV Del/Gnd/Twr/App #2 Burlington International Airport (Burlington, US-VT)
kbtvNearest METAR:
KBTV 241354Z 00000KT 10SM -DZ OVC006 17/14 A2981 RMK AO2 RAE46DZB49 CIG 005V010 SLP095 P0001 T01670144
KCTJ/KLGC CTAF West Georgia Regional Airport-O V Gray Field (Carrollton, US-GA)
kctjNearest METAR:
KCTJ 222115Z AUTO 33006KT 3SM +VCTSRA SCT014 BKN027 OVC090 22/20 A2991 RMK AO2 LTG DSNT ALQS T02150204
KCFD CTAF/App Coulter Field Airport (Bryan, US-TX)
kcfdNearest METAR:
KCFD 241415Z AUTO 17014G22KT 10SM OVC021 28/24 A2990 RMK AO2 LTG DSNT S T02780242
KCLM Del/CTAF/App William R Fairchild International Airport (Port Angeles, US-WA)
kclmNearest METAR:
KCLM 241353Z AUTO 00000KT 10SM OVC007 12/10 A3008 RMK AO2 SLP187 T01170100
KCRW Tower/Approach Yeager Airport (Charleston, US-WV)
kcrwNearest METAR:
KCRW 241354Z 15003KT 6SM BR SCT003 BKN020 OVC065 22/21 A2993 RMK AO2 LTG DSNT NW RAE28B36E46 SLP127 OCNL BINOVC CB DSNT NW VCSH VLY FG P0028 T02170211
KFHR CTAF Friday Harbor Airport (Friday Harbor, US-WA)
WX MAP UNAVAILABLENearest METAR:
KFHR 241353Z AUTO 00000KT 10SM OVC004 12/11 A3008 RMK AO2 SLP186 T01220106 TSNO
KFRG Tower #2 Republic Airport (Farmingdale, US-NY)
kfrgNearest METAR:
KFRG 241353Z 23005KT 1SM BR OVC003 19/19 A2985 RMK AO2 SFC VIS 2 SLP108 T01940189
KFYV Gnd/Twr/App/ZME Drake Field Airport (Fayetteville, US-AR)
kfyvNearest METAR:
KFYV 241414Z 12008KT 10SM VCTS -RA FEW110 21/19 A2977 RMK AO2 LTG DSNT E-S PRESFR P0001 T02060194
KGFL CTAF/App Floyd Bennett Memorial Airport (Glens Falls, US-NY)
kgflNearest METAR:
KGFL 241353Z AUTO 22003KT 7SM OVC006 17/16 A2981 RMK AO2 SLP094 T01720161
KGRR Del/Gnd/Twr/App Gerald R. Ford International Airport (Grand Rapids, US-MI)
kgrrNearest METAR:
KGRR 241353Z 30005KT 5SM BR OVC004 18/17 A2988 RMK AO2 SLP116 T01830172
KHDC De/Gnd/Twr/App/ZHU Hammond Northshore Regional Airport (Hammond, US-LA)
khdcNearest METAR:
KHDC 241415Z AUTO 20006KT 10SM BKN023 BKN029 BKN043 30/24 A3001 RMK AO2 LTG DSNT SW
NY Approach (NOBBI/NYACK/HAARP) Westchester County Airport (New York, US-NY)
khpnNearest METAR:
KHPN 241356Z 19004KT 1 1/2SM BR BKN005 OVC010 20/18 A2985 RMK AO2 SLP104 T02000183
KHRO CTAF/ZME/Misc Boone County Airport (Harrison, US-AR)
khroNearest METAR:
KHRO 241421Z AUTO 14012KT 6SM RA BR BKN110 20/19 A2988 RMK AO2 LTG DSNT ALQDS P0005 T02000189
KHVN Ground/Tower Tweed-New Haven Airport (New Haven, US-CT)
khvnNearest METAR:
KHVN 241353Z 19003KT 4SM BR OVC007 19/18 A2984 RMK AO2 SLP105 T01940178
KHYA/KFMH Twr/Cape App Cape Cod Coast Guard Air Station (Falmouth, US-MA)
kfmhNearest METAR:
KFMH 241415Z AUTO 24006KT 10SM OVC006 18/17 A2985 RMK AO2
KHYA/KFMH Twr/Cape App Cape Cod Coast Guard Air Station (Falmouth, US-MA)
khyaNearest METAR:
KHYA 241356Z 21006KT 10SM OVC007 18/17 A2984 RMK AO2 SLP104 T01830167
KISP (NY Approach) Long Island Mac Arthur Airport (Islip, US-NY)
kispNearest METAR:
KISP 241356Z 21008KT 7SM OVC005 20/19 A2985 RMK AO2 SLP108 T02000189
KJFK Ground #2 John F Kennedy International Airport (New York, US-NY)
kjfkNearest METAR:
KJFK 241400Z 22004KT 3SM BR OVC005 21/21 A2985 RMK AO2 SFC VIS 5 T02110206
KJXN Del/Gnd/Twr/App Jackson County Airport-Reynolds Field (Jackson, US-MI)
kjxnNearest METAR:
KJXN 241356Z 26006KT 10SM OVC009 18/16 A2988 RMK AO2 SLP115 T01780161
KLAN Del/Gnd/Twr/App Capital Region International Airport (Lansing, US-MI)
klanNearest METAR:
KLAN 241353Z 03005KT 10SM OVC007 19/17 A2987 RMK AO2 SLP112 T01890167
KMRY Del/Gnd/Twr Monterey Peninsula Airport (Monterey, US-CA)
kmryNearest METAR:
KMRY 241354Z 07003KT 6SM BR OVC005 14/13 A2986 RMK AO2 SLP122 T01390128
KMVY Del/Gnd/Twr Martha's Vineyard Airport (Vineyard Haven, US-MA)
kmvyNearest METAR:
KMVY 241353Z 24006KT 10SM OVC008 19/17 A2984 RMK AO2 CIG 006V010 SLP106 T01890172
KORH Del/Gnd/Twr Worcester Regional Airport (Worcester, US-MA)
korhNearest METAR:
KORH 241354Z 24010KT 10SM OVC004 17/16 A2985 RMK AO2 SLP106 T01670161
KOWD Ground/Tower Norwood Municipal Airport (Norwood, US-MA)
kowdNearest METAR:
KOWD 241353Z 24007KT 10SM OVC008 21/17 A2982 RMK AO2 SLP098 T02060167
KOXC Ground/Tower Waterbury-Oxford Airport (Oxford, US-CT)
koxcNearest METAR:
KOXC 241351Z 22004KT 6SM BR OVC007 19/18 A2985 RMK AO2 CIG 006V010 SLP119 T01940178
KPAE Gnd/Twr/App Snohomish County Airport (Paine Field) (Everett, US-WA)
kpaeNearest METAR:
KPAE 241356Z 32004KT 1/4SM R16R/0800V1200FT FG VV001 12/11 A3008 RMK AO2 T01170111
KPWA Gnd/Twr/App Wiley Post Airport (Oklahoma City, US-OK)
kpwaNearest METAR:
KPWA 241401Z 15014KT 10SM FEW070 SCT090 BKN110 21/19 A2980 RMK AO2 LTG DSNT SW PRESFR T02110194 $
KPWT CTAF Bremerton National Airport (Bremerton, US-WA)
kpwtNearest METAR:
KPWT 241426Z AUTO 06006KT 3/4SM BR OVC002 11/11 A3007 RMK AO2
KRAL/KRIV Gnd/Twr/App March Air Reserve Base (Riverside, US-CA)
krivNearest METAR:
KRIV 241358Z AUTO 00000KT 8SM OVC006 15/15 A2991 RMK AO2 SLP119 T01490149 $
KRNT Gnd/Twr/Unicom Renton Municipal Airport (Renton, US-WA)
krntNearest METAR:
KRNT 241425Z 33006KT 10SM OVC008 14/M01 A3006 RMK AO2 CIG 007V012 T01441006
KSBP Gnd/Twr San Luis County Regional Airport (San Luis Obispo, US-CA)
ksbpNearest METAR:
KSBP 241356Z 00000KT 10SM OVC009 16/13 A2988 RMK AO2 SLP115 T01560133
KSGF Ground/Tower Springfield-Branson National Airport (Springfield, US-MO)
ksgfNearest METAR:
KSGF 241352Z 13008KT 10SM -RA FEW070 BKN095 22/19 A2983 RMK AO2 LTG DSNT SE-SW RAB16 SLP088 P0000 T02220194
KSYR Tower/Approach Syracuse Hancock International Airport (Syracuse, US-NY)
ksyrNearest METAR:
KSYR 241354Z 00000KT 10SM OVC005 18/18 A2981 RMK AO2 DZE24 SLP091 P0000 T01780178
KTIK Gnd/Twr/Misc Tinker Air Force Base (Oklahoma City, US-OK)
ktikNearest METAR:
KTIK 241356Z AUTO 18011KT 10SM BKN080 BKN100 21/19 A2987 RMK AO2 LTG DSNT N AND W SLP109 T02060189
KUUU CTAF/Del Newport State Airport (Newport, US-RI)
kuuuNearest METAR:
KUUU 241353Z AUTO VRB05KT 10SM OVC005 18/17 A2985 RMK AO2 SLP106 T01830167
KWVI CTAF/NORCAL App #2 Watsonville Municipal Airport (Watsonville, US-CA)
kwviNearest METAR:
KWVI 241353Z AUTO 27006KT 8SM OVC009 14/13 A2985 RMK AO2 SLP108 T01440128 $
LSGG Tower Geneve-Cointrin International Airport (Geneva, Switzerland)
WX MAP UNAVAILABLENearest METAR:
LSGG 241420Z 35004KT 300V010 9999 -SHRA VCTS FEW045 FEW050CB BKN090 BKN250 18/14 Q1019 TEMPO TSRA
URMT Twr/App/Control Stavropol Shpakovskoye Airport (Stavropol, Russia)
WX MAP UNAVAILABLENearest METAR:
URMT 241400Z 01002MPS 9999 BKN033CB 27/13 Q1014 R25/010070 TEMPO 0300 +TSRAGR BKN002 BKN020CB RMK QFE722